Time;durP1;ratioP1;P1;durP2;ratioP2;P2;SDS_P1;SDS_P2;PMS_P1;PMS_P2;Temp;Humidity;BMP_temperature;BMP_pressure;BME280_temperature;BME280_humidity;BME280_pressure;Samples;Min_cycle;Max_cycle;Signal;HPM_P1;HPM_P2
2022/09/02 00:01:28;;;;;;;;;;;15.60;99.90;;;;;;5014209;28;19925;-81
2022/09/02 00:03:56;;;;;;;;;;;15.60;99.90;;;;;;5015259;28;19972;-81
2022/09/02 00:06:21;;;;;;;;;;;15.60;99.90;;;;;;5013975;28;20389;-81
2022/09/02 00:08:47;;;;;;;;;;;15.60;99.90;;;;;;5014377;28;19976;-81
2022/09/02 00:11:15;;;;;;;;;;;15.50;99.90;;;;;;5030325;28;19925;-81
2022/09/02 00:13:40;;;;;;;;;;;15.50;99.90;;;;;;5014097;28;19925;-81
2022/09/02 00:16:06;;;;;;;;;;;15.50;99.90;;;;;;5013908;28;20012;-82
2022/09/02 00:18:32;;;;;;;;;;;15.50;99.90;;;;;;5013971;28;19976;-81
2022/09/02 00:20:58;;;;;;;;;;;15.40;99.90;;;;;;5047056;28;19925;-82
2022/09/02 00:23:24;;;;;;;;;;;15.40;99.90;;;;;;5013900;28;19933;-81
2022/09/02 00:25:49;;;;;;;;;;;15.40;99.90;;;;;;5013804;28;19926;-81
2022/09/02 00:28:15;;;;;;;;;;;15.30;99.90;;;;;;5013759;28;19925;-81
2022/09/02 00:30:41;;;;;;;;;;;15.30;99.90;;;;;;5013479;28;19938;-81
2022/09/02 00:33:07;;;;;;;;;;;15.30;99.90;;;;;;5013473;28;20420;-81
2022/09/02 00:35:32;;;;;;;;;;;15.40;99.90;;;;;;5030885;28;19925;-81
2022/09/02 00:37:58;;;;;;;;;;;15.30;99.90;;;;;;4997981;28;19972;-81
2022/09/02 00:40:24;;;;;;;;;;;15.30;99.90;;;;;;5013556;28;19925;-81
2022/09/02 00:42:50;;;;;;;;;;;15.30;99.90;;;;;;4997131;28;19926;-81
2022/09/02 00:45:17;;;;;;;;;;;15.30;99.90;;;;;;5014387;28;19932;-81
2022/09/02 00:47:44;;;;;;;;;;;15.20;99.90;;;;;;5013395;28;19932;-80
2022/09/02 00:50:10;;;;;;;;;;;15.20;99.90;;;;;;5029710;28;19987;-81
2022/09/02 00:52:39;;;;;;;;;;;15.20;99.90;;;;;;5014126;28;19942;-81
2022/09/02 00:55:08;;;;;;;;;;;15.20;99.90;;;;;;5013576;28;19925;-81
2022/09/02 00:57:42;;;;;;;;;;;15.10;99.90;;;;;;5029843;28;19961;-81
2022/09/02 01:00:11;;;;;;;;;;;15.10;99.90;;;;;;5030082;28;19926;-81
2022/09/02 01:02:38;;;;;;;;;;;15.00;99.90;;;;;;4996742;28;20075;-81
2022/09/02 01:05:06;;;;;;;;;;;15.00;99.90;;;;;;5013047;28;19933;-81
2022/09/02 01:07:33;;;;;;;;;;;15.00;99.90;;;;;;5013151;28;20020;-80
2022/09/02 01:10:00;;;;;;;;;;;14.90;99.90;;;;;;4996898;28;19931;-81
2022/09/02 01:12:28;;;;;;;;;;;14.90;99.90;;;;;;5013139;28;19926;-81
2022/09/02 01:14:53;;;;;;;;;;;14.90;99.90;;;;;;5029675;28;19933;-81
2022/09/02 01:17:19;;;;;;;;;;;14.80;99.90;;;;;;5013799;28;20069;-81
2022/09/02 01:19:52;;;;;;;;;;;14.80;99.90;;;;;;4996693;28;20277;-80
2022/09/02 01:22:19;;;;;;;;;;;14.80;99.90;;;;;;5013859;28;19971;-81
2022/09/02 01:24:45;;;;;;;;;;;14.80;99.90;;;;;;5012940;28;20008;-80
2022/09/02 01:27:15;;;;;;;;;;;14.80;99.90;;;;;;5013168;28;20365;-81
2022/09/02 01:29:41;;;;;;;;;;;14.70;99.90;;;;;;5029515;28;20342;-81
2022/09/02 01:32:07;;;;;;;;;;;14.70;99.90;;;;;;5029383;28;19940;-80
2022/09/02 01:34:32;;;;;;;;;;;14.70;99.90;;;;;;5013640;28;19949;-81
2022/09/02 01:36:58;;;;;;;;;;;14.60;99.90;;;;;;5012858;28;20397;-81
2022/09/02 01:39:23;;;;;;;;;;;14.60;99.90;;;;;;5012787;28;19933;-81
2022/09/02 01:41:49;;;;;;;;;;;14.60;99.90;;;;;;4996438;28;19925;-81
2022/09/02 01:44:16;;;;;;;;;;;14.60;99.90;;;;;;5012767;28;20012;-81
2022/09/02 01:46:42;;;;;;;;;;;14.60;99.90;;;;;;5046048;28;19996;-81
2022/09/02 01:49:08;;;;;;;;;;;14.60;99.90;;;;;;5013009;28;19980;-80
2022/09/02 01:51:33;;;;;;;;;;;14.50;99.90;;;;;;5028859;28;20278;-81
2022/09/02 01:53:59;;;;;;;;;;;14.50;99.90;;;;;;4996253;28;20028;-81
2022/09/02 01:56:24;;;;;;;;;;;14.40;99.90;;;;;;4996574;28;19926;-81
2022/09/02 01:58:50;;;;;;;;;;;14.40;99.90;;;;;;4996244;28;20309;-81
2022/09/02 02:01:16;;;;;;;;;;;14.40;99.90;;;;;;5012583;28;19925;-81
2022/09/02 02:03:41;;;;;;;;;;;14.40;99.90;;;;;;4996280;28;20412;-80
2022/09/02 02:06:11;;;;;;;;;;;14.40;99.90;;;;;;5012001;28;19976;-81
2022/09/02 02:08:37;;;;;;;;;;;14.40;99.90;;;;;;5028985;28;20373;-80
2022/09/02 02:11:03;;;;;;;;;;;14.40;99.90;;;;;;5045537;28;19925;-81
2022/09/02 02:13:29;;;;;;;;;;;14.30;99.90;;;;;;4997681;28;19995;-81
2022/09/02 02:15:55;;;;;;;;;;;14.30;99.90;;;;;;5049523;28;19941;-81
2022/09/02 02:18:21;;;;;;;;;;;14.30;99.90;;;;;;4999873;28;19987;-81
2022/09/02 02:20:46;;;;;;;;;;;14.30;99.90;;;;;;5032689;28;19948;-81
2022/09/02 02:23:12;;;;;;;;;;;14.20;99.90;;;;;;5016057;28;19976;-81
2022/09/02 02:25:38;;;;;;;;;;;14.20;99.90;;;;;;5016151;28;19991;-81
2022/09/02 02:28:03;;;;;;;;;;;14.20;99.90;;;;;;5016308;28;19926;-81
2022/09/02 02:30:29;;;;;;;;;;;14.10;99.90;;;;;;5031936;28;19925;-78
2022/09/02 02:32:55;;;;;;;;;;;14.10;99.90;;;;;;5015914;28;19926;-77
2022/09/02 02:35:21;;;;;;;;;;;14.10;99.90;;;;;;5016067;28;20388;-77
2022/09/02 02:37:49;;;;;;;;;;;14.00;99.90;;;;;;5015656;28;20359;-77
2022/09/02 02:40:19;;;;;;;;;;;14.00;99.90;;;;;;5015992;28;20016;-77
2022/09/02 02:42:44;;;;;;;;;;;14.00;99.90;;;;;;5015766;28;19925;-77
2022/09/02 02:45:11;;;;;;;;;;;14.00;99.90;;;;;;5015594;28;19921;-77
2022/09/02 02:47:38;;;;;;;;;;;14.00;99.90;;;;;;5015748;28;19976;-77
2022/09/02 02:50:05;;;;;;;;;;;13.90;99.90;;;;;;5016048;28;20344;-78
2022/09/02 02:52:31;;;;;;;;;;;13.90;99.90;;;;;;5016335;28;20269;-78
2022/09/02 02:54:56;;;;;;;;;;;13.80;99.90;;;;;;4999269;28;19930;-77
2022/09/02 02:57:22;;;;;;;;;;;13.80;99.90;;;;;;5015806;28;20333;-78
2022/09/02 02:59:47;;;;;;;;;;;13.80;99.90;;;;;;5031738;28;19925;-77
2022/09/02 03:02:13;;;;;;;;;;;13.80;99.90;;;;;;5015351;28;19972;-77
2022/09/02 03:04:38;;;;;;;;;;;13.70;99.90;;;;;;4998799;28;19976;-78
2022/09/02 03:07:05;;;;;;;;;;;13.70;99.90;;;;;;5015498;28;19994;-77
2022/09/02 03:09:31;;;;;;;;;;;13.70;99.90;;;;;;5032057;28;19929;-78
2022/09/02 03:11:57;;;;;;;;;;;13.60;99.90;;;;;;5031475;28;19926;-78
2022/09/02 03:14:23;;;;;;;;;;;13.60;99.90;;;;;;5031544;28;20332;-77
2022/09/02 03:16:49;;;;;;;;;;;13.60;99.90;;;;;;5048386;28;19932;-77
2022/09/02 03:19:14;;;;;;;;;;;13.60;99.90;;;;;;5014995;28;19926;-77
2022/09/02 03:21:40;;;;;;;;;;;13.60;99.90;;;;;;5015084;28;19929;-77
2022/09/02 03:24:06;;;;;;;;;;;13.50;99.90;;;;;;5014972;28;19995;-77
2022/09/02 03:26:32;;;;;;;;;;;13.50;99.90;;;;;;4998695;28;20012;-78
2022/09/02 03:28:58;;;;;;;;;;;13.50;99.90;;;;;;5014522;28;19925;-77
2022/09/02 03:31:25;;;;;;;;;;;13.50;99.90;;;;;;5048509;28;19932;-77
2022/09/02 03:33:50;;;;;;;;;;;13.40;99.90;;;;;;5014790;28;19931;-78
2022/09/02 03:36:24;;;;;;;;;;;13.40;99.90;;;;;;5031983;28;20024;-77
2022/09/02 03:38:49;;;;;;;;;;;13.40;99.90;;;;;;5014415;28;19976;-77
2022/09/02 03:41:15;;;;;;;;;;;13.40;99.90;;;;;;5016078;28;19979;-77
2022/09/02 03:43:40;;;;;;;;;;;13.40;99.90;;;;;;5014663;28;19948;-77
2022/09/02 03:46:07;;;;;;;;;;;13.40;99.90;;;;;;5015507;28;20044;-77
2022/09/02 03:48:32;;;;;;;;;;;13.30;99.90;;;;;;5014816;28;19925;-78
2022/09/02 03:51:00;;;;;;;;;;;13.30;99.90;;;;;;4997848;28;19925;-76
2022/09/02 03:53:25;;;;;;;;;;;13.30;99.90;;;;;;5014605;28;19925;-76
2022/09/02 03:55:51;;;;;;;;;;;13.30;99.90;;;;;;5014124;28;19937;-77
2022/09/02 03:58:17;;;;;;;;;;;13.20;99.90;;;;;;5014672;28;20028;-78
2022/09/02 04:00:43;;;;;;;;;;;13.20;99.90;;;;;;5014282;28;19932;-77
2022/09/02 04:03:09;;;;;;;;;;;13.20;99.90;;;;;;5030998;28;20357;-77
2022/09/02 04:05:34;;;;;;;;;;;13.10;99.90;;;;;;5013859;28;19955;-78
2022/09/02 04:08:00;;;;;;;;;;;13.10;99.90;;;;;;5047245;28;19932;-77
2022/09/02 04:10:25;;;;;;;;;;;13.10;99.90;;;;;;5047114;28;19935;-77
2022/09/02 04:12:51;;;;;;;;;;;13.10;99.90;;;;;;5014365;28;20387;-77
2022/09/02 04:15:18;;;;;;;;;;;13.10;99.90;;;;;;5014319;28;19932;-77
2022/09/02 04:17:44;;;;;;;;;;;13.10;99.90;;;;;;4997742;28;19925;-77
2022/09/02 04:20:11;;;;;;;;;;;13.10;99.90;;;;;;5047838;28;19979;-77
2022/09/02 04:22:36;;;;;;;;;;;13.10;99.90;;;;;;5013913;28;20378;-76
2022/09/02 04:25:03;;;;;;;;;;;13.10;99.90;;;;;;5014676;28;19925;-77
2022/09/02 04:27:29;;;;;;;;;;;13.00;99.90;;;;;;5013661;28;19972;-78
2022/09/02 04:29:55;;;;;;;;;;;13.00;99.90;;;;;;5046753;28;19951;-77
2022/09/02 04:32:21;;;;;;;;;;;13.00;99.90;;;;;;5047523;28;20009;-77
2022/09/02 04:34:47;;;;;;;;;;;13.00;99.90;;;;;;4997371;28;19925;-77
2022/09/02 04:37:13;;;;;;;;;;;13.00;99.90;;;;;;5013235;28;19979;-77
2022/09/02 04:39:38;;;;;;;;;;;13.00;99.90;;;;;;5013583;28;19940;-77
2022/09/02 04:42:04;;;;;;;;;;;13.00;99.90;;;;;;5013824;28;20048;-77
2022/09/02 04:44:30;;;;;;;;;;;13.00;99.90;;;;;;5013533;28;19925;-77
2022/09/02 04:46:56;;;;;;;;;;;12.90;99.90;;;;;;4997196;28;19932;-77
2022/09/02 04:49:22;;;;;;;;;;;13.00;99.90;;;;;;5014053;28;20030;-77
2022/09/02 04:51:47;;;;;;;;;;;12.90;99.90;;;;;;5030140;28;20039;-77
2022/09/02 04:54:13;;;;;;;;;;;12.90;99.90;;;;;;4997591;28;19976;-77
2022/09/02 04:56:39;;;;;;;;;;;12.90;99.90;;;;;;5046438;28;20024;-77
2022/09/02 04:59:04;;;;;;;;;;;12.90;99.90;;;;;;5012960;28;19948;-77
2022/09/02 05:01:32;;;;;;;;;;;12.90;99.90;;;;;;5013154;28;19936;-80
2022/09/02 05:03:58;;;;;;;;;;;12.90;99.90;;;;;;5029707;28;19929;-78
2022/09/02 05:06:26;;;;;;;;;;;13.00;99.90;;;;;;5045411;28;19968;-79
2022/09/02 05:08:52;;;;;;;;;;;12.90;99.90;;;;;;5013354;28;19980;-78
2022/09/02 05:11:19;;;;;;;;;;;12.90;99.90;;;;;;5013078;28;19933;-77
2022/09/02 05:13:50;;;;;;;;;;;12.90;99.90;;;;;;5012874;28;20012;-77
2022/09/02 05:16:16;;;;;;;;;;;12.90;99.90;;;;;;5013266;28;20012;-78
2022/09/02 05:18:42;;;;;;;;;;;12.90;99.90;;;;;;5012982;28;20391;-81
2022/09/02 05:21:08;;;;;;;;;;;13.00;99.90;;;;;;4996668;28;19983;-80
2022/09/02 05:23:34;;;;;;;;;;;13.00;99.90;;;;;;4996711;28;20022;-79
2022/09/02 05:26:02;;;;;;;;;;;13.00;99.90;;;;;;5013873;28;19980;-79
2022/09/02 05:28:28;;;;;;;;;;;13.00;99.90;;;;;;5012761;28;19975;-79
2022/09/02 05:30:53;;;;;;;;;;;13.00;99.90;;;;;;5012685;28;19980;-79
2022/09/02 05:33:20;;;;;;;;;;;13.00;99.90;;;;;;5013562;28;19936;-78
2022/09/02 05:35:45;;;;;;;;;;;13.00;99.90;;;;;;5046712;28;19925;-78
2022/09/02 05:38:11;;;;;;;;;;;13.00;99.90;;;;;;4997108;28;19952;-78
2022/09/02 05:40:37;;;;;;;;;;;13.10;99.90;;;;;;5045803;28;20381;-80
2022/09/02 05:43:04;;;;;;;;;;;13.10;99.90;;;;;;5029214;28;19933;-79
2022/09/02 05:45:29;;;;;;;;;;;13.10;99.90;;;;;;5029489;28;19975;-78
2022/09/02 05:47:55;;;;;;;;;;;13.20;99.90;;;;;;5013460;28;19973;-78
2022/09/02 05:50:21;;;;;;;;;;;13.20;99.90;;;;;;5000136;28;20266;-78
2022/09/02 05:52:49;;;;;;;;;;;13.20;99.90;;;;;;5033418;28;19929;-78
2022/09/02 05:55:15;;;;;;;;;;;13.30;99.90;;;;;;5000240;28;19926;-79
2022/09/02 05:57:42;;;;;;;;;;;13.30;99.90;;;;;;5001057;28;19938;-78
2022/09/02 06:00:07;;;;;;;;;;;13.30;99.90;;;;;;5017198;28;19980;-78
2022/09/02 06:02:33;;;;;;;;;;;13.40;99.90;;;;;;5032877;28;19979;-78
2022/09/02 06:04:59;;;;;;;;;;;13.40;99.90;;;;;;4999842;28;20353;-78
2022/09/02 06:07:25;;;;;;;;;;;13.50;99.90;;;;;;5016493;28;19925;-79
2022/09/02 06:09:51;;;;;;;;;;;13.50;99.90;;;;;;5032777;28;20273;-79
2022/09/02 06:12:19;;;;;;;;;;;13.60;99.90;;;;;;5016421;28;19926;-82
2022/09/02 06:14:46;;;;;;;;;;;13.60;99.90;;;;;;5033557;28;19925;-78
2022/09/02 06:17:11;;;;;;;;;;;13.70;99.90;;;;;;5016325;28;20002;-78
2022/09/02 06:19:37;;;;;;;;;;;13.70;99.90;;;;;;5016356;28;20381;-78
2022/09/02 06:22:03;;;;;;;;;;;13.80;99.90;;;;;;5017209;28;19951;-78
2022/09/02 06:24:29;;;;;;;;;;;13.90;99.90;;;;;;5016210;28;19926;-79
2022/09/02 06:26:56;;;;;;;;;;;13.90;99.90;;;;;;5032288;28;20399;-79
2022/09/02 06:29:22;;;;;;;;;;;14.00;99.90;;;;;;4999995;28;19935;-79
2022/09/02 06:31:48;;;;;;;;;;;14.10;99.90;;;;;;5016907;28;19925;-78
2022/09/02 06:34:15;;;;;;;;;;;14.20;99.90;;;;;;4999597;28;19926;-78
2022/09/02 06:36:45;;;;;;;;;;;14.20;99.90;;;;;;5015848;28;19953;-78
2022/09/02 06:39:12;;;;;;;;;;;14.30;99.90;;;;;;5016235;28;20031;-78
2022/09/02 06:41:39;;;;;;;;;;;14.40;99.90;;;;;;5032566;28;20321;-77
2022/09/02 06:44:05;;;;;;;;;;;14.50;99.90;;;;;;5015771;28;19925;-78
2022/09/02 06:46:32;;;;;;;;;;;14.60;99.90;;;;;;5032267;28;19925;-79
2022/09/02 06:48:58;;;;;;;;;;;14.70;99.90;;;;;;5015678;28;19926;-78
2022/09/02 06:51:29;;;;;;;;;;;14.80;99.90;;;;;;5032263;28;19925;-78
2022/09/02 06:53:54;;;;;;;;;;;14.80;99.90;;;;;;5032034;28;19925;-78
2022/09/02 06:56:20;;;;;;;;;;;15.00;99.90;;;;;;4999243;28;20028;-79
2022/09/02 06:58:46;;;;;;;;;;;15.10;99.90;;;;;;5015168;28;19925;-78
2022/09/02 07:01:19;;;;;;;;;;;15.20;99.90;;;;;;5015525;28;19979;-78
2022/09/02 07:06:34;;;;;;;;;;;15.30;99.90;;;;;;5048904;28;19929;-79
2022/09/02 07:09:00;;;;;;;;;;;15.40;99.90;;;;;;5015324;28;19925;-78
2022/09/02 07:11:26;;;;;;;;;;;15.50;99.90;;;;;;4998981;28;19925;-78
2022/09/02 07:13:52;;;;;;;;;;;15.60;99.90;;;;;;5047937;28;19930;-78
2022/09/02 07:16:17;;;;;;;;;;;15.70;99.90;;;;;;5015074;28;19933;-78
2022/09/02 07:18:43;;;;;;;;;;;15.80;99.90;;;;;;5048150;28;19925;-78
2022/09/02 07:21:09;;;;;;;;;;;15.90;99.90;;;;;;5031275;28;19976;-82
2022/09/02 07:23:35;;;;;;;;;;;16.00;99.90;;;;;;5014917;28;19932;-79
2022/09/02 07:26:01;;;;;;;;;;;16.10;99.90;;;;;;4998483;28;19930;-79
2022/09/02 07:28:27;;;;;;;;;;;16.20;99.90;;;;;;4998587;28;19976;-79
2022/09/02 07:30:54;;;;;;;;;;;16.30;99.90;;;;;;5031241;28;19933;-80
2022/09/02 07:33:20;;;;;;;;;;;16.40;99.90;;;;;;5032107;28;20364;-80
2022/09/02 07:35:46;;;;;;;;;;;16.40;99.90;;;;;;5031198;28;20012;-80
2022/09/02 07:38:11;;;;;;;;;;;16.60;99.90;;;;;;5015504;28;20040;-81
2022/09/02 07:40:38;;;;;;;;;;;16.70;99.90;;;;;;5014483;28;19925;-80
2022/09/02 07:43:05;;;;;;;;;;;16.80;99.90;;;;;;4998574;28;19929;-80
2022/09/02 07:45:31;;;;;;;;;;;16.90;99.90;;;;;;5014553;28;19925;-79
2022/09/02 07:47:56;;;;;;;;;;;17.00;99.90;;;;;;5014350;28;19933;-79
2022/09/02 07:50:25;;;;;;;;;;;17.20;99.90;;;;;;5047374;28;19972;-79
2022/09/02 07:52:56;;;;;;;;;;;17.30;99.90;;;;;;5013978;28;20425;-79
2022/09/02 07:55:22;;;;;;;;;;;17.40;99.90;;;;;;5014606;28;19930;-79
2022/09/02 07:57:48;;;;;;;;;;;17.50;99.90;;;;;;5014484;28;19971;-79
2022/09/02 08:00:15;;;;;;;;;;;17.60;99.90;;;;;;5014338;28;20424;-79
2022/09/02 08:02:41;;;;;;;;;;;17.70;99.90;;;;;;5014392;28;20037;-78
2022/09/02 08:05:07;;;;;;;;;;;17.80;99.90;;;;;;5013460;28;19973;-80
2022/09/02 08:07:33;;;;;;;;;;;17.80;99.90;;;;;;5013897;28;19965;-79
2022/09/02 08:09:59;;;;;;;;;;;17.90;99.90;;;;;;5013832;28;19932;-79
2022/09/02 08:12:26;;;;;;;;;;;18.10;99.90;;;;;;5012956;28;19925;-78
2022/09/02 08:14:51;;;;;;;;;;;18.20;99.90;;;;;;5013802;28;19931;-78
2022/09/02 08:17:17;;;;;;;;;;;18.30;99.90;;;;;;5014137;28;19925;-78
2022/09/02 08:19:43;;;;;;;;;;;18.40;99.90;;;;;;5014349;28;19932;-79
2022/09/02 08:22:09;;;;;;;;;;;18.50;99.90;;;;;;5047844;28;19977;-80
2022/09/02 08:24:35;;;;;;;;;;;18.60;99.90;;;;;;5014628;28;20289;-79
2022/09/02 08:27:00;;;;;;;;;;;18.80;99.90;;;;;;4997048;28;20328;-78
2022/09/02 08:29:26;;;;;;;;;;;18.80;99.90;;;;;;5013706;28;20040;-78
2022/09/02 08:31:51;;;;;;;;;;;18.90;99.90;;;;;;4997012;28;19929;-77
2022/09/02 08:34:17;;;;;;;;;;;19.00;99.90;;;;;;4997371;28;19925;-78
2022/09/02 08:36:43;;;;;;;;;;;19.10;99.90;;;;;;4997482;28;19926;-78
2022/09/02 08:39:09;;;;;;;;;;;19.20;99.90;;;;;;5013827;28;19965;-78
2022/09/02 08:41:50;;;;;;;;;;;19.30;99.90;;;;;;5029964;28;20016;-78
2022/09/02 08:44:19;;;;;;;;;;;19.30;99.90;;;;;;4997909;28;19949;-78
2022/09/02 08:46:45;;;;;;;;;;;19.40;99.90;;;;;;4997160;28;19932;-78
2022/09/02 08:49:24;;;;;;;;;;;19.50;99.90;;;;;;4997509;28;19925;-78
2022/09/02 08:51:51;;;;;;;;;;;19.70;99.90;;;;;;5013305;28;19941;-78
2022/09/02 08:54:16;;;;;;;;;;;19.80;99.90;;;;;;5013871;28;20318;-78
2022/09/02 08:56:42;;;;;;;;;;;19.80;99.90;;;;;;5014083;28;19953;-78
2022/09/02 08:59:08;;;;;;;;;;;19.90;99.90;;;;;;4997120;28;19965;-78
2022/09/02 09:01:53;;;;;;;;;;;20.00;99.90;;;;;;5030443;28;19925;-79
2022/09/02 09:04:19;;;;;;;;;;;20.00;99.90;;;;;;5012928;28;19980;-78
2022/09/02 09:06:57;;;;;;;;;;;20.20;99.90;;;;;;5013956;28;20003;-78
2022/09/02 09:09:29;;;;;;;;;;;20.30;99.90;;;;;;4996848;28;19925;-79
2022/09/02 09:12:13;;;;;;;;;;;20.50;99.90;;;;;;5030004;28;19991;-78
2022/09/02 09:14:45;;;;;;;;;;;20.50;99.90;;;;;;5013503;28;19925;-81
2022/09/02 09:17:17;;;;;;;;;;;20.60;99.90;;;;;;4996687;28;19956;-81
2022/09/02 09:19:52;;;;;;;;;;;20.60;99.90;;;;;;5030218;28;20257;-79
2022/09/02 09:22:20;;;;;;;;;;;20.70;99.90;;;;;;5013604;28;19925;-79
2022/09/02 09:24:47;;;;;;;;;;;20.80;99.90;;;;;;5013174;28;19925;-79
2022/09/02 09:27:14;;;;;;;;;;;20.90;99.90;;;;;;5046171;28;20000;-79
2022/09/02 09:29:40;;;;;;;;;;;21.00;99.90;;;;;;5013311;28;19940;-79
2022/09/02 09:32:22;;;;;;;;;;;21.20;99.80;;;;;;5012263;28;20020;-78
2022/09/02 09:34:55;;;;;;;;;;;21.30;99.90;;;;;;5012100;28;19925;-79
2022/09/02 09:37:40;;;;;;;;;;;21.40;99.60;;;;;;5012550;28;19952;-82
2022/09/02 09:40:19;;;;;;;;;;;21.60;99.30;;;;;;5046329;28;19941;-80
2022/09/02 09:42:45;;;;;;;;;;;21.70;97.80;;;;;;5045619;28;19980;-81
2022/09/02 09:45:17;;;;;;;;;;;21.80;98.60;;;;;;4995799;28;19972;-79
2022/09/02 09:47:43;;;;;;;;;;;21.80;98.20;;;;;;4995971;28;19929;-81
2022/09/02 09:50:11;;;;;;;;;;;21.90;98.00;;;;;;5012954;28;19971;-77
2022/09/02 09:52:36;;;;;;;;;;;22.00;98.00;;;;;;5011681;28;19957;-79
2022/09/02 09:55:13;;;;;;;;;;;22.00;97.60;;;;;;4995524;28;20008;-81
2022/09/02 09:57:40;;;;;;;;;;;21.90;97.40;;;;;;5011829;28;19996;-79
2022/09/02 10:00:09;;;;;;;;;;;21.90;97.20;;;;;;5012149;28;20016;-80
2022/09/02 10:02:44;;;;;;;;;;;22.00;97.10;;;;;;5011853;28;20370;-80
2022/09/02 10:05:31;;;;;;;;;;;22.20;97.30;;;;;;5011746;28;19925;-80
2022/09/02 10:07:58;;;;;;;;;;;22.20;96.70;;;;;;5012362;28;19932;-80
2022/09/02 10:10:25;;;;;;;;;;;22.30;96.20;;;;;;5011939;28;19993;-83
2022/09/02 10:12:53;;;;;;;;;;;22.40;96.50;;;;;;5012073;28;19926;-84
2022/09/02 10:15:33;;;;;;;;;;;22.60;96.90;;;;;;5011794;28;19933;-80
2022/09/02 10:18:05;;;;;;;;;;;22.60;96.30;;;;;;5045064;28;20428;-79
2022/09/02 10:20:49;;;;;;;;;;;22.70;96.60;;;;;;5045477;28;20281;-79
2022/09/02 10:23:31;;;;;;;;;;;22.80;95.00;;;;;;5013000;28;19925;-81
2022/09/02 10:26:16;;;;;;;;;;;23.00;95.60;;;;;;5012587;28;19926;-80
2022/09/02 10:29:00;;;;;;;;;;;23.10;94.50;;;;;;4995688;28;19993;-79
2022/09/02 10:31:26;;;;;;;;;;;23.20;94.50;;;;;;5011708;28;20016;-79
2022/09/02 10:33:59;;;;;;;;;;;23.30;94.40;;;;;;5046116;28;19972;-79
2022/09/02 10:36:35;;;;;;;;;;;23.30;95.00;;;;;;5049105;28;19933;-79
2022/09/02 10:39:10;;;;;;;;;;;23.30;94.60;;;;;;5032148;28;20408;-79
2022/09/02 10:41:44;;;;;;;;;;;23.40;92.70;;;;;;5000075;28;20247;-79
2022/09/02 10:44:16;;;;;;;;;;;23.50;93.70;;;;;;5016462;28;19925;-79
2022/09/02 10:47:00;;;;;;;;;;;23.60;93.40;;;;;;5015201;28;20384;-79
2022/09/02 10:49:25;;;;;;;;;;;23.70;92.00;;;;;;5016446;28;19925;-79
2022/09/02 10:51:54;;;;;;;;;;;23.80;92.90;;;;;;5014947;28;20040;-79
2022/09/02 10:54:38;;;;;;;;;;;23.90;92.30;;;;;;5015598;28;19969;-78
2022/09/02 10:57:10;;;;;;;;;;;24.10;92.80;;;;;;5016589;28;19926;-80
2022/09/02 10:59:35;;;;;;;;;;;24.10;92.30;;;;;;5015246;28;19944;-80
2022/09/02 11:02:23;;;;;;;;;;;24.10;92.00;;;;;;5015396;28;19956;-79
2022/09/02 11:04:55;;;;;;;;;;;24.20;91.30;;;;;;5016000;28;20009;-81
2022/09/02 11:07:24;;;;;;;;;;;24.30;90.80;;;;;;5031801;28;19926;-79
2022/09/02 11:09:59;;;;;;;;;;;24.50;92.10;;;;;;5014766;28;19936;-80
2022/09/02 11:12:33;;;;;;;;;;;24.50;91.10;;;;;;5031672;28;19933;-78
2022/09/02 11:15:02;;;;;;;;;;;24.70;90.30;;;;;;5015916;28;19925;-79
2022/09/02 11:17:28;;;;;;;;;;;24.90;90.10;;;;;;5048172;28;19945;-78
2022/09/02 11:19:59;;;;;;;;;;;25.00;91.00;;;;;;4998776;28;19925;-79
2022/09/02 11:22:44;;;;;;;;;;;25.10;88.90;;;;;;4998669;28;19988;-78
2022/09/02 11:25:16;;;;;;;;;;;25.40;88.00;;;;;;5014639;28;19933;-78
2022/09/02 11:27:51;;;;;;;;;;;25.60;87.60;;;;;;5047893;28;20405;-79
2022/09/02 11:30:20;;;;;;;;;;;25.80;86.20;;;;;;5015654;28;19929;-80
2022/09/02 11:32:49;;;;;;;;;;;26.10;86.60;;;;;;5031307;28;19925;-79
2022/09/02 11:35:26;;;;;;;;;;;26.30;84.80;;;;;;5048408;28;19932;-80
2022/09/02 11:38:06;;;;;;;;;;;26.60;86.30;;;;;;5015312;28;19935;-81
2022/09/02 11:40:39;;;;;;;;;;;26.80;82.80;;;;;;5014268;28;20266;-80
2022/09/02 11:43:31;;;;;;;;;;;27.20;82.20;;;;;;5014271;28;19941;-80
2022/09/02 11:46:06;;;;;;;;;;;27.40;79.60;;;;;;5012006;28;20374;-80
2022/09/02 11:48:53;;;;;;;;;;;27.70;80.90;;;;;;5015669;28;19944;-80
2022/09/02 11:51:22;;;;;;;;;;;27.90;81.10;;;;;;5013739;28;20024;-82
2022/09/02 11:53:47;;;;;;;;;;;27.80;79.20;;;;;;5030605;28;20312;-82
2022/09/02 11:56:25;;;;;;;;;;;27.90;78.30;;;;;;5031354;28;19980;-82
2022/09/02 11:58:51;;;;;;;;;;;27.80;76.10;;;;;;5015928;28;19921;-79
2022/09/02 12:01:20;;;;;;;;;;;27.80;75.20;;;;;;5013731;28;20402;-78
2022/09/02 12:04:01;;;;;;;;;;;27.90;75.90;;;;;;5014196;28;19926;-80
2022/09/02 12:06:26;;;;;;;;;;;28.10;76.50;;;;;;5013387;28;20384;-79
2022/09/02 12:08:53;;;;;;;;;;;28.30;78.40;;;;;;5014560;28;19955;-80
2022/09/02 12:11:38;;;;;;;;;;;28.40;76.70;;;;;;5046658;28;19928;-79
2022/09/02 12:14:12;;;;;;;;;;;28.30;73.80;;;;;;5047012;28;19928;-82
2022/09/02 12:17:01;;;;;;;;;;;28.20;73.90;;;;;;4998273;28;19922;-78
2022/09/02 12:19:28;;;;;;;;;;;28.30;76.10;;;;;;5014629;28;19928;-80
2022/09/02 12:22:12;;;;;;;;;;;28.50;75.10;;;;;;5014660;28;19922;-77
2022/09/02 12:25:07;;;;;;;;;;;28.70;76.10;;;;;;5014731;28;19921;-81
2022/09/02 12:27:36;;;;;;;;;;;28.90;76.10;;;;;;4996246;28;19922;-81
2022/09/02 12:30:04;;;;;;;;;;;29.40;75.30;;;;;;5014352;28;19941;-80
2022/09/02 12:32:45;;;;;;;;;;;29.50;74.90;;;;;;5013478;28;19976;-81
2022/09/02 12:35:12;;;;;;;;;;;29.60;73.40;;;;;;5013701;28;19921;-79
2022/09/02 12:38:15;;;;;;;;;;;29.90;74.30;;;;;;5014416;28;19921;-79
2022/09/02 12:40:50;;;;;;;;;;;30.10;73.00;;;;;;5047327;28;19922;-80
2022/09/02 12:43:24;;;;;;;;;;;30.20;70.80;;;;;;5014293;28;19921;-80
2022/09/02 12:45:52;;;;;;;;;;;30.30;71.30;;;;;;5014140;28;19921;-77
2022/09/02 12:48:18;;;;;;;;;;;30.50;71.90;;;;;;5029947;28;19925;-83
2022/09/02 12:50:55;;;;;;;;;;;30.40;71.30;;;;;;5012783;28;20265;-81
2022/09/02 12:53:33;;;;;;;;;;;30.50;70.90;;;;;;4996989;28;20250;-80
2022/09/02 12:56:03;;;;;;;;;;;30.50;71.20;;;;;;5029739;28;19927;-82
2022/09/02 12:58:39;;;;;;;;;;;30.50;72.20;;;;;;5012862;28;20353;-80
2022/09/02 13:01:04;;;;;;;;;;;30.90;72.70;;;;;;5029785;28;19922;-81
2022/09/02 13:03:42;;;;;;;;;;;31.20;70.60;;;;;;4996838;28;19976;-80
2022/09/02 13:06:17;;;;;;;;;;;31.40;69.50;;;;;;5029153;28;20008;-79
2022/09/02 13:08:49;;;;;;;;;;;31.30;66.10;;;;;;5012751;28;19937;-78
2022/09/02 13:11:33;;;;;;;;;;;31.30;66.10;;;;;;5012717;28;20369;-80
2022/09/02 13:14:22;;;;;;;;;;;31.60;68.60;;;;;;5012885;28;19921;-78
2022/09/02 13:16:51;;;;;;;;;;;31.70;66.60;;;;;;5014697;28;19957;-78
2022/09/02 13:19:18;;;;;;;;;;;31.80;65.10;;;;;;5013057;28;19921;-77
2022/09/02 13:21:44;;;;;;;;;;;31.60;63.70;;;;;;5046621;28;19976;-79
2022/09/02 13:24:24;;;;;;;;;;;31.80;67.10;;;;;;4996342;28;20345;-79
2022/09/02 13:26:56;;;;;;;;;;;32.00;65.90;;;;;;5013523;28;20245;-79
2022/09/02 13:29:36;;;;;;;;;;;32.20;64.40;;;;;;5014715;28;19932;-80
2022/09/02 13:32:08;;;;;;;;;;;31.80;63.60;;;;;;5012550;28;19948;-80
2022/09/02 13:34:39;;;;;;;;;;;32.10;66.60;;;;;;5013501;28;20007;-81
2022/09/02 13:37:05;;;;;;;;;;;32.20;63.30;;;;;;5029039;28;19921;-80
2022/09/02 13:39:30;;;;;;;;;;;32.20;64.30;;;;;;5012661;28;19928;-80
2022/09/02 13:41:56;;;;;;;;;;;32.00;63.50;;;;;;5012400;28;19948;-80
2022/09/02 13:44:23;;;;;;;;;;;32.00;64.60;;;;;;5012746;28;19925;-81
2022/09/02 13:46:53;;;;;;;;;;;31.90;62.60;;;;;;5013187;28;20384;-80
2022/09/02 13:49:38;;;;;;;;;;;31.70;61.50;;;;;;5012529;28;20296;-80
2022/09/02 13:52:05;;;;;;;;;;;31.90;63.50;;;;;;4994769;28;19921;-80
2022/09/02 13:54:33;;;;;;;;;;;32.50;64.70;;;;;;5028617;28;20342;-80
2022/09/02 13:57:00;;;;;;;;;;;32.40;61.60;;;;;;5029083;28;19994;-80
2022/09/02 13:59:44;;;;;;;;;;;32.70;61.50;;;;;;5012520;28;19921;-79
2022/09/02 14:02:29;;;;;;;;;;;33.10;63.80;;;;;;5012515;28;19921;-79
2022/09/02 14:05:00;;;;;;;;;;;33.60;61.10;;;;;;5012216;28;20004;-81
2022/09/02 14:07:29;;;;;;;;;;;33.80;60.30;;;;;;5013002;28;19935;-81
2022/09/02 14:09:56;;;;;;;;;;;33.90;62.10;;;;;;5014440;28;20020;-81
2022/09/02 14:12:22;;;;;;;;;;;33.80;60.30;;;;;;5032307;28;19929;-81
2022/09/02 14:14:47;;;;;;;;;;;33.80;58.90;;;;;;5016235;28;19932;-80
2022/09/02 14:17:18;;;;;;;;;;;34.00;58.70;;;;;;4999784;28;20019;-80
2022/09/02 14:19:43;;;;;;;;;;;33.90;58.70;;;;;;4999471;28;19993;-81
2022/09/02 14:22:19;;;;;;;;;;;34.00;57.70;;;;;;5016254;28;19929;-82
2022/09/02 14:24:45;;;;;;;;;;;33.90;57.40;;;;;;5016055;28;20026;-82
2022/09/02 14:27:19;;;;;;;;;;;34.00;58.40;;;;;;5016582;28;19988;-81
2022/09/02 14:29:45;;;;;;;;;;;34.20;58.90;;;;;;5015690;28;19933;-82